CheckWX is a tool to help pilots better visualize weather data.  It is not intended as a substitute for an official pre-flight weather briefing.

22:56:26 UTC

LIRE METAR
Pratica Di Mare Airport
Pomezia, Italy
Current

1 hour ago

LIRE 212155Z 05003KT CAVOK 07/07 Q1035 RMK SKC VIS MIN 9999 WIND THR13 03003KT WIND THR31 04003KT BLU
Observed
Jan-21 @ 21:55 UTC
Wind
  • 050° at 3 KTS
Visibility
10,000+ meters
Flight Rules
VFR
Cloud Levels
  • Clear skies
Temperature
C / 45°F
Dewpoint
C / 45°F
Humidity
100%
Altimeter
30.56" Hg
Pressure
1034.92 hPa
Previous

2 hours ago

LIRE 212055Z 03004KT 9999 SCT070 08/07 Q1035 RMK SCT VIS MIN 9999 WIND THR13 05003KT WIND THR31 07002KT BLU
Observed
Jan-21 @ 20:55 UTC
Wind
  • 030° at 4 KTS
Visibility
10,000+ meters
Flight Rules
VFR
Cloud Levels
  • Scattered at 7,000' AGL
Temperature
C / 46°F
Dewpoint
C / 45°F
Humidity
93%
Altimeter
30.56" Hg
Pressure
1034.92 hPa
Previous

3 hours ago

LIRE 211955Z 03005KT 9999 SCT070 08/07 Q1035 RMK SCT VIS MIN 9999 WIND THR13 01003KT WIND THR31 04004KT BLU
Observed
Jan-21 @ 19:55 UTC
Wind
  • 030° at 5 KTS
Visibility
10,000+ meters
Flight Rules
VFR
Cloud Levels
  • Scattered at 7,000' AGL
Temperature
C / 46°F
Dewpoint
C / 45°F
Humidity
93%
Altimeter
30.56" Hg
Pressure
1034.92 hPa